Time,TemperatureF,DewpointF,PressureIn,WindDirection,WindDirectionDegrees,WindSpeedMPH,WindSpeedGustMPH,Humidity,HourlyPrecipIn,Conditions,Clouds,dailyrainin,SolarRadiationWatts/m^2,SoftwareType,DateUTC
2013-01-13 00:02:00,22.0,0.0,-100.00,NNE,16,0.0,8.0,38,0.00,,,0.00,0.000000,,2013-01-13 07:02:00,
2013-01-13 00:32:00,18.0,0.0,-100.00,WNW,285,0.0,4.0,44,0.00,,,0.00,0.000000,,2013-01-13 07:32:00,
2013-01-13 00:42:00,18.0,0.0,-100.00,WNW,285,0.0,4.0,44,0.00,,,0.00,0.000000,,2013-01-13 07:42:00,
2013-01-13 00:52:00,18.0,0.0,-100.00,WNW,285,0.0,4.0,44,0.00,,,0.00,0.000000,,2013-01-13 07:52:00,
2013-01-13 01:02:00,18.0,0.0,-100.00,WNW,285,0.0,4.0,44,0.00,,,0.00,0.000000,,2013-01-13 08:02:00,
2013-01-13 01:32:00,16.0,0.0,-100.00,North,352,0.0,0.0,49,0.00,,,-99.99,0.000000,,2013-01-13 08:32:00,
2013-01-13 01:42:00,16.0,0.0,-100.00,North,352,0.0,0.0,49,0.00,,,-99.99,0.000000,,2013-01-13 08:42:00,
2013-01-13 01:52:00,16.0,0.0,-100.00,North,352,0.0,0.0,49,0.00,,,-99.99,0.000000,,2013-01-13 08:52:00,
2013-01-13 02:02:00,16.0,0.0,-100.00,North,352,0.0,0.0,49,0.00,,,-99.99,0.000000,,2013-01-13 09:02:00,
2013-01-13 02:22:00,17.0,-2.0,-100.00,WNW,303,5.0,10.0,42,0.00,,,0.00,0.000000,,2013-01-13 09:22:00,
2013-01-13 02:32:00,17.0,-2.0,-100.00,WNW,303,5.0,10.0,42,0.00,,,0.00,0.000000,,2013-01-13 09:32:00,
2013-01-13 02:42:00,17.0,-2.0,-100.00,WNW,303,5.0,10.0,42,0.00,,,0.00,0.000000,,2013-01-13 09:42:00,
2013-01-13 02:52:00,17.0,-2.0,-100.00,WNW,303,5.0,10.0,42,0.00,,,0.00,0.000000,,2013-01-13 09:52:00,
2013-01-13 03:02:00,17.0,-2.0,-100.00,WNW,303,5.0,10.0,42,0.00,,,0.00,0.000000,,2013-01-13 10:02:00,
2013-01-13 03:32:00,15.0,-3.0,-100.00,North,357,3.0,11.0,43,0.00,,,0.00,0.000000,,2013-01-13 10:32:00,
2013-01-13 03:42:00,15.0,-3.0,-100.00,North,357,3.0,11.0,43,0.00,,,0.00,0.000000,,2013-01-13 10:42:00,
2013-01-13 03:52:00,15.0,-3.0,-100.00,North,357,3.0,11.0,43,0.00,,,0.00,0.000000,,2013-01-13 10:52:00,
2013-01-13 04:02:00,15.0,-3.0,-100.00,North,357,3.0,11.0,43,0.00,,,0.00,0.000000,,2013-01-13 11:02:00,
2013-01-13 04:33:00,13.0,-5.0,-100.00,North,353,4.0,10.0,44,0.00,,,0.00,0.000000,,2013-01-13 11:33:00,
2013-01-13 04:42:00,13.0,-5.0,-100.00,North,353,4.0,10.0,44,0.00,,,0.00,0.000000,,2013-01-13 11:42:00,
2013-01-13 04:52:00,13.0,-5.0,-100.00,North,353,4.0,10.0,44,0.00,,,0.00,0.000000,,2013-01-13 11:52:00,
2013-01-13 05:02:00,13.0,-5.0,-100.00,North,353,4.0,10.0,44,0.00,,,0.00,0.000000,,2013-01-13 12:02:00,
2013-01-13 05:33:00,12.0,-5.0,-100.00,North,354,5.0,11.0,45,0.00,,,0.00,0.000000,,2013-01-13 12:33:00,
2013-01-13 05:42:00,12.0,-5.0,-100.00,North,354,5.0,11.0,45,0.00,,,0.00,0.000000,,2013-01-13 12:42:00,
2013-01-13 05:53:00,12.0,-5.0,-100.00,North,354,5.0,11.0,45,0.00,,,0.00,0.000000,,2013-01-13 12:53:00,
2013-01-13 06:02:00,12.0,-5.0,-100.00,North,354,5.0,11.0,45,0.00,,,0.00,0.000000,,2013-01-13 13:02:00,
2013-01-13 06:22:00,11.0,-6.0,-100.00,North,354,5.0,11.0,46,0.00,,,0.00,0.000000,,2013-01-13 13:22:00,
2013-01-13 06:33:00,11.0,-6.0,-100.00,North,354,5.0,11.0,46,0.00,,,0.00,0.000000,,2013-01-13 13:33:00,
2013-01-13 06:42:00,11.0,-6.0,-100.00,North,354,5.0,11.0,46,0.00,,,0.00,0.000000,,2013-01-13 13:42:00,
2013-01-13 06:53:00,11.0,-6.0,-100.00,North,354,5.0,11.0,46,0.00,,,0.00,0.000000,,2013-01-13 13:53:00,
2013-01-13 07:02:00,11.0,-6.0,-100.00,North,354,5.0,11.0,46,0.00,,,0.00,0.000000,,2013-01-13 14:02:00,
2013-01-13 07:33:00,10.0,-7.0,-100.00,North,354,6.0,12.0,46,0.00,,,0.00,0.000000,,2013-01-13 14:33:00,
2013-01-13 07:43:00,10.0,-7.0,-100.00,North,354,6.0,12.0,46,0.00,,,0.00,0.000000,,2013-01-13 14:43:00,
2013-01-13 07:53:00,10.0,-7.0,-100.00,North,354,6.0,12.0,46,0.00,,,0.00,0.000000,,2013-01-13 14:53:00,
2013-01-13 08:02:00,10.0,-7.0,-100.00,North,354,6.0,12.0,46,0.00,,,0.00,0.000000,,2013-01-13 15:02:00,
2013-01-13 08:03:00,10.0,-6.0,-100.00,NNE,31,4.0,12.0,47,0.00,,,0.00,3.000000,,2013-01-13 15:03:00,
2013-01-13 08:23:00,10.0,-6.0,-100.00,NNE,31,4.0,12.0,47,0.00,,,0.00,3.000000,,2013-01-13 15:23:00,
2013-01-13 08:33:00,10.0,-6.0,-100.00,NNE,31,4.0,12.0,47,0.00,,,0.00,3.000000,,2013-01-13 15:33:00,
2013-01-13 08:43:00,10.0,-6.0,-100.00,NNE,31,4.0,12.0,47,0.00,,,0.00,3.000000,,2013-01-13 15:43:00,
2013-01-13 08:53:00,10.0,-6.0,-100.00,NNE,31,4.0,12.0,47,0.00,,,0.00,3.000000,,2013-01-13 15:53:00,
2013-01-13 09:33:00,12.0,-6.0,-100.00,NW,320,5.0,13.0,44,0.00,,,0.00,34.000000,,2013-01-13 16:33:00,
2013-01-13 09:43:00,12.0,-6.0,-100.00,NW,320,5.0,13.0,44,0.00,,,0.00,34.000000,,2013-01-13 16:43:00,
2013-01-13 09:53:00,12.0,-6.0,-100.00,NW,320,5.0,13.0,44,0.00,,,0.00,34.000000,,2013-01-13 16:53:00,
2013-01-13 10:02:00,12.0,-6.0,-100.00,NW,320,5.0,13.0,44,0.00,,,0.00,34.000000,,2013-01-13 17:02:00,
2013-01-13 10:33:00,23.0,-1.0,-100.00,North,355,2.0,9.0,34,0.00,,,0.00,253.000000,,2013-01-13 17:33:00,
2013-01-13 10:43:00,23.0,-1.0,-100.00,North,355,2.0,9.0,34,0.00,,,0.00,253.000000,,2013-01-13 17:43:00,
2013-01-13 10:53:00,23.0,-1.0,-100.00,North,355,2.0,9.0,34,0.00,,,0.00,253.000000,,2013-01-13 17:53:00,
2013-01-13 11:02:00,23.0,-1.0,-100.00,North,355,2.0,9.0,34,0.00,,,0.00,253.000000,,2013-01-13 18:02:00,
2013-01-13 11:33:00,32.0,0.0,-100.00,North,0,0.0,5.0,25,0.00,,,0.00,326.000000,,2013-01-13 18:33:00,
2013-01-13 11:43:00,32.0,0.0,-100.00,North,0,0.0,5.0,25,0.00,,,0.00,326.000000,,2013-01-13 18:43:00,
2013-01-13 11:53:00,32.0,0.0,-100.00,North,0,0.0,5.0,25,0.00,,,0.00,326.000000,,2013-01-13 18:53:00,
2013-01-13 12:02:00,32.0,0.0,-100.00,North,0,0.0,5.0,25,0.00,,,0.00,326.000000,,2013-01-13 19:02:00,
2013-01-13 12:33:00,32.0,-1.0,-100.00,North,0,3.0,8.0,24,0.00,,,0.00,412.000000,,2013-01-13 19:33:00,
2013-01-13 12:43:00,32.0,-1.0,-100.00,North,0,3.0,8.0,24,0.00,,,0.00,412.000000,,2013-01-13 19:43:00,
2013-01-13 12:53:00,32.0,-1.0,-100.00,North,0,3.0,8.0,24,0.00,,,0.00,412.000000,,2013-01-13 19:53:00,
2013-01-13 13:02:00,32.0,-1.0,-100.00,North,0,3.0,8.0,24,0.00,,,0.00,412.000000,,2013-01-13 20:02:00,
2013-01-13 13:33:00,32.0,-3.0,-100.00,North,1,3.0,10.0,21,0.00,,,0.00,550.000000,,2013-01-13 20:33:00,
2013-01-13 13:43:00,32.0,-3.0,-100.00,North,1,3.0,10.0,21,0.00,,,0.00,550.000000,,2013-01-13 20:43:00,
2013-01-13 13:53:00,32.0,-3.0,-100.00,North,1,3.0,10.0,21,0.00,,,0.00,550.000000,,2013-01-13 20:53:00,
2013-01-13 14:02:00,32.0,-3.0,-100.00,North,1,3.0,10.0,21,0.00,,,0.00,550.000000,,2013-01-13 21:02:00,
2013-01-13 14:33:00,34.0,-4.0,-100.00,NW,324,3.0,12.0,19,0.00,,,0.00,527.000000,,2013-01-13 21:33:00,
2013-01-13 14:43:00,34.0,-4.0,-100.00,NW,324,3.0,12.0,19,0.00,,,0.00,527.000000,,2013-01-13 21:43:00,
2013-01-13 14:53:00,34.0,-4.0,-100.00,NW,324,3.0,12.0,19,0.00,,,0.00,527.000000,,2013-01-13 21:53:00,
2013-01-13 15:02:00,34.0,-4.0,-100.00,NW,324,3.0,12.0,19,0.00,,,0.00,527.000000,,2013-01-13 22:02:00,
2013-01-13 15:23:00,35.0,-3.0,-100.00,SSE,166,2.0,11.0,19,0.00,,,0.00,407.000000,,2013-01-13 22:23:00,
2013-01-13 15:33:00,35.0,-3.0,-100.00,SSE,166,2.0,11.0,19,0.00,,,0.00,407.000000,,2013-01-13 22:33:00,
2013-01-13 15:43:00,35.0,-3.0,-100.00,SSE,166,2.0,11.0,19,0.00,,,0.00,407.000000,,2013-01-13 22:43:00,
2013-01-13 15:52:00,35.0,-3.0,-100.00,SSE,166,2.0,11.0,19,0.00,,,0.00,407.000000,,2013-01-13 22:52:00,
2013-01-13 16:02:00,35.0,-3.0,-100.00,SSE,166,2.0,11.0,19,0.00,,,0.00,407.000000,,2013-01-13 23:02:00,
2013-01-13 16:33:00,30.0,-2.0,-100.00,North,0,1.0,9.0,24,0.00,,,0.00,192.000000,,2013-01-13 23:33:00,
2013-01-13 16:43:00,30.0,-2.0,-100.00,North,0,1.0,9.0,24,0.00,,,0.00,192.000000,,2013-01-13 23:43:00,
2013-01-13 16:53:00,30.0,-2.0,-100.00,North,0,1.0,9.0,24,0.00,,,0.00,192.000000,,2013-01-13 23:53:00,
2013-01-13 17:02:00,30.0,-2.0,-100.00,North,0,1.0,9.0,24,0.00,,,0.00,192.000000,,2013-01-14 00:02:00,
2013-01-13 17:33:00,28.0,-2.0,-100.00,North,0,0.0,6.0,26,0.00,,,0.00,22.000000,,2013-01-14 00:33:00,
2013-01-13 17:43:00,28.0,-2.0,-100.00,North,0,0.0,6.0,26,0.00,,,0.00,22.000000,,2013-01-14 00:43:00,
2013-01-13 17:53:00,28.0,-2.0,-100.00,North,0,0.0,6.0,26,0.00,,,0.00,22.000000,,2013-01-14 00:53:00,
2013-01-13 18:02:00,28.0,-2.0,-100.00,North,0,0.0,6.0,26,0.00,,,0.00,22.000000,,2013-01-14 01:02:00,
2013-01-13 18:33:00,24.0,2.0,-100.00,NW,324,0.0,6.0,37,0.00,,,0.00,6.000000,,2013-01-14 01:33:00,
2013-01-13 18:42:00,24.0,2.0,-100.00,NW,324,0.0,6.0,37,0.00,,,0.00,6.000000,,2013-01-14 01:42:00,
2013-01-13 18:52:00,24.0,2.0,-100.00,NW,324,0.0,6.0,37,0.00,,,0.00,6.000000,,2013-01-14 01:52:00,
2013-01-13 19:02:00,24.0,2.0,-100.00,NW,324,0.0,6.0,37,0.00,,,0.00,6.000000,,2013-01-14 02:02:00,
2013-01-13 19:33:00,22.0,3.0,-100.00,NNW,329,0.0,0.0,44,0.00,,,0.00,0.000000,,2013-01-14 02:33:00,
2013-01-13 19:43:00,22.0,3.0,-100.00,NNW,329,0.0,0.0,44,0.00,,,0.00,0.000000,,2013-01-14 02:43:00,
2013-01-13 19:53:00,22.0,3.0,-100.00,NNW,329,0.0,0.0,44,0.00,,,0.00,0.000000,,2013-01-14 02:53:00,
2013-01-13 20:02:00,22.0,3.0,-100.00,NNW,329,0.0,0.0,44,0.00,,,0.00,0.000000,,2013-01-14 03:02:00,
2013-01-13 20:33:00,22.0,1.0,-100.00,North,355,0.0,5.0,40,0.00,,,-99.99,0.000000,,2013-01-14 03:33:00,
2013-01-13 20:43:00,22.0,1.0,-100.00,North,355,0.0,5.0,40,0.00,,,-99.99,0.000000,,2013-01-14 03:43:00,
2013-01-13 20:53:00,22.0,1.0,-100.00,North,355,0.0,5.0,40,0.00,,,-99.99,0.000000,,2013-01-14 03:53:00,
2013-01-13 21:02:00,22.0,1.0,-100.00,North,355,0.0,5.0,40,0.00,,,-99.99,0.000000,,2013-01-14 04:02:00,
2013-01-13 21:03:00,21.0,2.0,-100.00,WNW,282,0.0,5.0,43,0.00,,,0.00,0.000000,,2013-01-14 04:03:00,
2013-01-13 21:32:00,21.0,2.0,-100.00,WNW,282,0.0,5.0,43,0.00,,,0.00,0.000000,,2013-01-14 04:32:00,
2013-01-13 21:42:00,21.0,2.0,-100.00,WNW,282,0.0,5.0,43,0.00,,,0.00,0.000000,,2013-01-14 04:42:00,
2013-01-13 21:53:00,21.0,2.0,-100.00,WNW,282,0.0,5.0,43,0.00,,,0.00,0.000000,,2013-01-14 04:53:00,
2013-01-13 22:22:00,20.0,2.0,-100.00,North,356,2.0,5.0,44,0.00,,,0.00,0.000000,,2013-01-14 05:22:00,
2013-01-13 22:33:00,20.0,2.0,-100.00,North,356,2.0,5.0,44,0.00,,,0.00,0.000000,,2013-01-14 05:33:00,
2013-01-13 22:43:00,20.0,2.0,-100.00,North,356,2.0,5.0,44,0.00,,,0.00,0.000000,,2013-01-14 05:43:00,
2013-01-13 22:53:00,20.0,2.0,-100.00,North,356,2.0,5.0,44,0.00,,,0.00,0.000000,,2013-01-14 05:53:00,
2013-01-13 23:02:00,20.0,2.0,-100.00,North,356,2.0,5.0,44,0.00,,,0.00,0.000000,,2013-01-14 06:02:00,
2013-01-13 23:23:00,19.0,0.0,-100.00,North,352,3.0,10.0,42,0.00,,,0.00,0.000000,,2013-01-14 06:23:00,
2013-01-13 23:33:00,19.0,0.0,-100.00,North,352,3.0,10.0,42,0.00,,,0.00,0.000000,,2013-01-14 06:33:00,
2013-01-13 23:43:00,19.0,0.0,-100.00,North,352,3.0,10.0,42,0.00,,,0.00,0.000000,,2013-01-14 06:43:00,
2013-01-13 23:52:00,19.0,0.0,-100.00,North,352,3.0,10.0,42,0.00,,,0.00,0.000000,,2013-01-14 06:52:00,